createdAt,value
2019-03-08T00:02:16.511Z,7.57
2019-03-08T00:07:22.942Z,7.61
2019-03-08T00:12:29.326Z,7.53
2019-03-08T00:17:34.529Z,7.51
2019-03-08T00:22:40.107Z,7.53
2019-03-08T00:27:45.351Z,7.45
2019-03-08T00:32:50.716Z,7.43
2019-03-08T00:37:55.979Z,7.42
2019-03-08T00:43:02.660Z,7.53
2019-03-08T00:48:08.771Z,7.50
2019-03-08T00:53:15.678Z,7.59
2019-03-08T00:58:21.114Z,7.58
2019-03-08T01:03:26.376Z,7.64
2019-03-08T01:08:31.757Z,7.68
2019-03-08T01:13:37.563Z,7.72
2019-03-08T01:18:42.749Z,7.80
2019-03-08T01:23:47.997Z,7.81
2019-03-08T01:28:53.524Z,7.86
2019-03-08T01:33:58.760Z,7.89
2019-03-08T01:39:05.236Z,7.99
2019-03-08T01:44:12.492Z,7.93
2019-03-08T01:49:18.091Z,7.94
2019-03-08T01:54:23.487Z,7.88
2019-03-08T01:59:28.682Z,7.86
2019-03-08T02:04:33.911Z,7.87
2019-03-08T02:09:39.833Z,7.84
2019-03-08T02:14:45.809Z,7.80
2019-03-08T02:19:51.781Z,7.77
2019-03-08T02:24:56.964Z,7.74
2019-03-08T02:30:02.152Z,7.75
2019-03-08T02:35:08.039Z,7.79
2019-03-08T02:40:41.509Z,7.67
2019-03-08T02:45:46.839Z,7.68
2019-03-08T02:50:52.008Z,7.65
2019-03-08T02:55:58.332Z,7.78
2019-03-08T03:01:03.615Z,7.79
2019-03-08T03:06:09.172Z,7.79
2019-03-08T03:11:14.426Z,7.77
2019-03-08T03:16:19.798Z,7.80
2019-03-08T03:21:25.143Z,7.84
2019-03-08T03:26:30.334Z,7.93
2019-03-08T03:31:35.602Z,7.84
2019-03-08T03:36:41.021Z,7.80
2019-03-08T03:41:46.640Z,7.78
2019-03-08T03:46:51.897Z,7.77
2019-03-08T03:51:57.080Z,7.73
2019-03-08T03:57:02.295Z,7.68
2019-03-08T04:07:18.807Z,7.73
2019-03-08T04:12:24.363Z,7.71
2019-03-08T04:17:29.596Z,7.64
2019-03-08T04:22:34.904Z,7.60
2019-03-08T04:27:41.706Z,7.62
2019-03-08T04:32:47.068Z,7.61
2019-03-08T04:37:52.350Z,7.66
2019-03-08T04:42:57.901Z,7.63
2019-03-08T04:48:03.084Z,7.72
2019-03-08T04:53:08.319Z,7.61
2019-03-08T04:58:13.523Z,7.58
2019-03-08T05:03:18.885Z,7.63
2019-03-08T05:08:24.288Z,7.66
2019-03-08T05:13:29.676Z,7.58
2019-03-08T05:18:34.874Z,7.63
2019-03-08T05:23:40.220Z,7.59
2019-03-08T05:28:45.889Z,7.53
2019-03-08T05:33:51.187Z,7.58
2019-03-08T05:38:56.667Z,7.53
2019-03-08T05:44:02.028Z,7.57
2019-03-08T05:49:07.376Z,7.56
2019-03-08T05:57:57.140Z,7.59
2019-03-08T06:03:02.673Z,7.52
2019-03-08T06:08:07.960Z,7.56
2019-03-08T06:13:13.174Z,7.45
2019-03-08T06:18:18.769Z,7.58
2019-03-08T06:23:23.948Z,7.54
2019-03-08T06:28:29.440Z,7.59
2019-03-08T06:33:34.715Z,7.61
2019-03-08T06:38:40.275Z,7.58
2019-03-08T06:43:45.520Z,7.53
2019-03-08T06:48:50.805Z,7.59
2019-03-08T06:53:56.012Z,7.60
2019-03-08T06:59:26.228Z,7.57
2019-03-08T07:04:31.481Z,7.59
2019-03-08T07:09:37.768Z,7.63
2019-03-08T07:14:43.103Z,7.58
2019-03-08T07:19:55.480Z,7.55
2019-03-08T07:25:18.417Z,7.49
2019-03-08T07:30:43.581Z,7.51
2019-03-08T07:36:00.519Z,7.42
2019-03-08T07:41:23.609Z,7.41
2019-03-08T07:46:51.627Z,7.42
2019-03-08T07:52:08.768Z,7.36
2019-03-08T07:57:25.031Z,6.97
2019-03-08T08:02:39.347Z,6.97
2019-03-08T08:08:12.986Z,6.80
2019-03-08T08:13:28.870Z,6.57
2019-03-08T08:18:55.535Z,6.33
2019-03-08T08:24:26.233Z,6.37
2019-03-08T08:29:49.360Z,6.39
2019-03-08T08:35:01.830Z,6.57
2019-03-08T08:40:16.002Z,6.75
2019-03-08T08:45:43.616Z,6.78
2019-03-08T08:51:17.025Z,6.79
2019-03-08T08:56:42.185Z,6.90
2019-03-08T09:02:12.504Z,7.04
2019-03-08T09:07:24.889Z,7.02
2019-03-08T09:12:53.997Z,6.99
2019-03-08T09:18:18.503Z,7.03
2019-03-08T09:23:32.283Z,6.87
2019-03-08T09:28:45.415Z,7.00
2019-03-08T09:34:07.113Z,7.02
2019-03-08T09:39:32.489Z,6.97
2019-03-08T09:44:56.696Z,7.21
2019-03-08T09:50:19.767Z,7.30
2019-03-08T09:55:39.321Z,7.58
2019-03-08T10:01:16.224Z,7.78
2019-03-08T10:06:31.660Z,7.87
2019-03-08T10:11:59.064Z,8.05
2019-03-08T10:17:26.454Z,8.04
2019-03-08T10:23:01.313Z,8.64
2019-03-08T10:28:24.582Z,8.79
2019-03-08T10:33:47.765Z,9.07
2019-03-08T10:39:04.308Z,9.13
2019-03-08T10:44:29.864Z,9.03
2019-03-08T10:49:57.167Z,9.55
2019-03-08T10:55:20.063Z,10.24
2019-03-08T11:00:44.315Z,10.66
2019-03-08T11:06:07.597Z,10.81
2019-03-08T11:11:41.353Z,11.30
2019-03-08T11:17:18.710Z,11.41
2019-03-08T11:22:43.289Z,10.40
2019-03-08T11:28:07.719Z,10.77
2019-03-08T11:33:33.622Z,11.77
2019-03-08T11:39:01.333Z,12.43
2019-03-08T11:44:31.738Z,11.62
2019-03-08T11:49:55.997Z,11.84
2019-03-08T11:55:20.592Z,13.11
2019-03-08T12:00:54.230Z,13.80
2019-03-08T12:06:18.549Z,13.09
2019-03-08T12:11:41.594Z,12.68
2019-03-08T12:17:09.113Z,14.66
2019-03-08T12:22:23.903Z,12.84
2019-03-08T12:28:03.683Z,11.98
2019-03-08T12:33:28.219Z,11.51
2019-03-08T12:38:42.345Z,11.62
2019-03-08T12:44:05.657Z,10.82
2019-03-08T12:49:29.284Z,10.58
2019-03-08T12:54:52.721Z,10.47
2019-03-08T13:00:05.237Z,10.70
2019-03-08T13:05:35.452Z,10.43
2019-03-08T13:10:41.482Z,11.57
2019-03-08T13:15:49.596Z,14.17
2019-03-08T13:20:56.809Z,16.82
2019-03-08T13:26:02.861Z,18.34
2019-03-08T13:31:10.169Z,17.42
2019-03-08T13:36:17.635Z,15.66
2019-03-08T13:41:24.148Z,14.97
2019-03-08T13:46:29.720Z,13.76
2019-03-08T13:51:35.780Z,13.87
2019-03-08T13:56:41.449Z,13.18
2019-03-08T14:01:46.825Z,12.64
2019-03-08T14:06:52.093Z,12.17
2019-03-08T14:11:57.332Z,12.11
2019-03-08T14:17:03.116Z,11.92
2019-03-08T14:22:08.440Z,11.47
2019-03-08T14:27:13.744Z,11.53
2019-03-08T14:32:21.158Z,11.21
2019-03-08T14:37:28.923Z,11.04
2019-03-08T14:42:53.336Z,10.84
2019-03-08T14:47:59.981Z,11.01
2019-03-08T14:53:05.694Z,11.11
2019-03-08T14:58:11.196Z,10.95
2019-03-08T15:03:20.178Z,10.83
2019-03-08T15:08:25.308Z,10.96
2019-03-08T15:13:31.153Z,11.08
2019-03-08T15:18:36.995Z,11.03
2019-03-08T15:23:42.564Z,11.08
2019-03-08T15:28:48.139Z,11.38
2019-03-08T15:33:53.360Z,11.17
2019-03-08T15:38:59.136Z,11.10
2019-03-08T15:44:06.329Z,11.04
2019-03-08T15:49:12.124Z,10.85
2019-03-08T15:54:17.369Z,10.81
2019-03-08T15:59:22.570Z,11.09
2019-03-08T16:04:28.276Z,11.22
2019-03-08T16:09:33.792Z,11.21
2019-03-08T16:14:40.029Z,11.05
2019-03-08T16:19:45.893Z,10.62
2019-03-08T16:24:51.554Z,10.49
2019-03-08T16:29:56.534Z,10.05
2019-03-08T16:35:01.538Z,9.76
2019-03-08T16:40:28.388Z,9.78
2019-03-08T16:45:56.206Z,9.66
2019-03-08T16:51:20.647Z,9.46
2019-03-08T16:56:43.924Z,9.44
2019-03-08T17:02:27.928Z,9.11
2019-03-08T17:08:01.488Z,8.98
2019-03-08T17:13:14.237Z,8.75
2019-03-08T17:18:31.077Z,8.62
2019-03-08T17:23:50.045Z,8.16
2019-03-08T17:29:14.395Z,8.19
2019-03-08T17:34:37.703Z,7.97
2019-03-08T17:39:51.440Z,7.95
2019-03-08T17:45:05.751Z,7.86
2019-03-08T17:50:33.456Z,7.86
2019-03-08T17:55:56.590Z,7.94
2019-03-08T18:01:14.593Z,7.80
2019-03-08T18:06:26.779Z,7.73
2019-03-08T18:11:56.976Z,7.74
2019-03-08T18:17:39.953Z,7.63
2019-03-08T18:22:53.739Z,7.63
2019-03-08T18:28:18.347Z,7.48
2019-03-08T18:33:33.561Z,7.43
2019-03-08T18:39:14.399Z,7.44
2019-03-08T18:44:48.379Z,7.38
2019-03-08T18:50:11.895Z,7.36
2019-03-08T18:55:26.067Z,7.54
2019-03-08T19:00:59.355Z,7.57
2019-03-08T19:06:36.009Z,7.59
2019-03-08T19:12:03.089Z,7.57
2019-03-08T19:17:37.080Z,7.54
2019-03-08T19:22:48.975Z,7.63
2019-03-08T19:28:13.398Z,7.64
2019-03-08T19:33:43.941Z,7.68
2019-03-08T19:39:17.676Z,7.55
2019-03-08T19:44:35.301Z,7.62
2019-03-08T19:50:08.990Z,7.58
2019-03-08T19:55:21.426Z,7.65
2019-03-08T20:00:44.113Z,7.62
2019-03-08T20:06:07.381Z,7.56
2019-03-08T20:11:22.373Z,7.58
2019-03-08T20:16:51.080Z,7.60
2019-03-08T20:22:02.371Z,7.57
2019-03-08T20:27:41.761Z,7.53
2019-03-08T20:33:06.316Z,7.60
2019-03-08T20:38:33.686Z,7.66
2019-03-08T20:44:01.655Z,7.67
2019-03-08T20:49:07.392Z,7.63
2019-03-08T20:54:13.235Z,7.64
2019-03-08T20:59:18.971Z,7.69
2019-03-08T21:04:24.360Z,7.75
2019-03-08T21:09:29.849Z,7.71
2019-03-08T21:14:35.407Z,7.65
2019-03-08T21:19:41.967Z,7.68
2019-03-08T21:24:48.082Z,7.69
2019-03-08T21:29:53.672Z,7.76
2019-03-08T21:34:59.535Z,7.69
2019-03-08T21:40:05.283Z,7.73
2019-03-08T21:45:12.453Z,7.73
2019-03-08T21:50:18.098Z,7.80
2019-03-08T21:55:25.313Z,7.76
2019-03-08T22:00:31.861Z,7.77
2019-03-08T22:05:38.781Z,7.75
2019-03-08T22:11:00.056Z,7.80
2019-03-08T22:16:05.927Z,7.87
2019-03-08T22:21:11.609Z,7.98
2019-03-08T22:26:17.180Z,8.01
2019-03-08T22:31:23.009Z,8.03
2019-03-08T22:36:28.380Z,8.00
2019-03-08T22:41:35.633Z,8.01
2019-03-08T22:46:45.188Z,8.08
2019-03-08T22:53:09.974Z,8.09
2019-03-08T22:58:16.325Z,8.13
2019-03-08T23:03:22.321Z,8.03
2019-03-08T23:08:27.745Z,7.97
2019-03-08T23:13:34.118Z,8.08
2019-03-08T23:18:40.074Z,8.05
2019-03-08T23:23:46.319Z,8.11
2019-03-08T23:29:00.897Z,8.09
2019-03-08T23:34:06.477Z,8.09
2019-03-08T23:39:12.963Z,8.14
2019-03-08T23:44:18.338Z,8.11
2019-03-08T23:49:23.888Z,8.11
2019-03-08T23:54:29.572Z,8.14
2019-03-08T23:59:35.273Z,8.09
